createdAt,value
2018-04-17T00:00:10.954Z,3.83
2018-04-17T00:02:38.482Z,4.07
2018-04-17T00:05:06.760Z,3.80
2018-04-17T00:07:34.499Z,4.20
2018-04-17T00:10:02.018Z,3.83
2018-04-17T00:12:29.530Z,3.80
2018-04-17T00:14:57.810Z,3.90
2018-04-17T00:17:26.093Z,4.17
2018-04-17T00:19:53.597Z,3.90
2018-04-17T00:22:21.137Z,4.13
2018-04-17T00:24:48.687Z,4.00
2018-04-17T00:27:16.190Z,4.00
2018-04-17T00:29:43.699Z,4.37
2018-04-17T00:32:11.218Z,3.60
2018-04-17T00:34:38.731Z,3.80
2018-04-17T00:37:06.262Z,3.63
2018-04-17T00:39:33.766Z,3.40
2018-04-17T00:42:01.291Z,3.83
2018-04-17T00:44:28.798Z,3.77
2018-04-17T00:46:56.306Z,3.90
2018-04-17T00:49:23.826Z,3.60
2018-04-17T00:51:52.103Z,3.50
2018-04-17T00:54:19.617Z,3.70
2018-04-17T00:56:47.130Z,3.67
2018-04-17T00:59:15.410Z,3.87
2018-04-17T01:01:43.678Z,3.67
2018-04-17T01:04:11.201Z,3.90
2018-04-17T01:06:39.177Z,4.10
2018-04-17T01:09:06.707Z,4.13
2018-04-17T01:11:34.430Z,4.43
2018-04-17T01:14:01.942Z,3.63
2018-04-17T01:16:29.466Z,3.90
2018-04-17T01:18:57.114Z,3.90
2018-04-17T01:21:24.613Z,3.90
2018-04-17T01:23:52.346Z,3.77
2018-04-17T01:26:19.860Z,4.07
2018-04-17T01:28:47.374Z,4.40
2018-04-17T01:31:15.126Z,3.97
2018-04-17T01:33:42.891Z,4.00
2018-04-17T01:36:10.531Z,4.30
2018-04-17T01:38:38.182Z,3.83
2018-04-17T01:41:05.694Z,4.10
2018-04-17T01:43:33.242Z,3.97
2018-04-17T01:46:01.422Z,4.03
2018-04-17T01:48:28.944Z,4.07
2018-04-17T01:50:57.233Z,4.10
2018-04-17T01:53:24.741Z,4.07
2018-04-17T01:55:52.263Z,4.10
2018-04-17T01:58:19.766Z,4.40
2018-04-17T02:00:47.285Z,3.97
2018-04-17T02:03:14.785Z,3.97
2018-04-17T02:05:42.292Z,4.10
2018-04-17T02:08:09.811Z,4.30
2018-04-17T02:10:37.316Z,4.53
2018-04-17T02:13:04.831Z,4.17
2018-04-17T02:15:32.346Z,4.17
2018-04-17T02:17:59.871Z,4.50
2018-04-17T02:37:43.693Z,4.50
2018-04-17T02:40:11.974Z,4.20
2018-04-17T02:42:39.676Z,4.47
2018-04-17T02:45:07.294Z,4.33
2018-04-17T02:47:34.802Z,4.10
2018-04-17T02:50:02.343Z,4.50
2018-04-17T02:52:29.857Z,4.80
2018-04-17T02:54:57.486Z,4.30
2018-04-17T02:57:25.026Z,4.50
2018-04-17T02:59:52.789Z,5.00
2018-04-17T03:02:20.458Z,4.70
2018-04-17T03:04:48.016Z,4.63
2018-04-17T03:07:15.585Z,4.40
2018-04-17T03:09:43.158Z,4.73
2018-04-17T03:12:10.701Z,4.70
2018-04-17T03:14:38.441Z,4.60
2018-04-17T03:17:06.220Z,4.50
2018-04-17T03:19:33.981Z,4.90
2018-04-17T03:22:01.746Z,4.77
2018-04-17T03:24:29.378Z,5.10
2018-04-17T03:26:56.957Z,5.17
2018-04-17T03:29:24.719Z,5.50
2018-04-17T03:31:52.483Z,5.10
2018-04-17T03:34:20.167Z,4.90
2018-04-17T03:36:47.686Z,5.07
2018-04-17T03:39:15.337Z,4.90
2018-04-17T03:41:42.929Z,5.20
2018-04-17T03:44:10.687Z,4.60
2018-04-17T03:46:38.248Z,5.27
2018-04-17T03:49:05.830Z,5.30
2018-04-17T03:51:33.341Z,5.93
2018-04-17T03:54:00.959Z,5.47
2018-04-17T03:56:28.493Z,5.67
2018-04-17T03:58:56.001Z,5.70
2018-04-17T04:01:23.688Z,6.90
2018-04-17T04:03:51.201Z,5.20
2018-04-17T04:06:18.709Z,5.40
2018-04-17T04:08:46.483Z,5.77
2018-04-17T04:11:14.144Z,5.70
2018-04-17T04:13:41.703Z,5.87
2018-04-17T04:16:30.046Z,5.60
2018-04-17T04:19:09.290Z,6.00
2018-04-17T04:21:48.933Z,6.10
2018-04-17T04:24:28.433Z,5.30
2018-04-17T04:26:56.138Z,6.30
2018-04-17T04:29:23.709Z,5.50
2018-04-17T04:31:51.229Z,6.53
2018-04-17T04:34:18.747Z,6.40
2018-04-17T04:36:46.257Z,6.00
2018-04-17T04:39:14.631Z,6.00
2018-04-17T04:41:43.230Z,6.13
2018-04-17T04:44:10.741Z,5.70
2018-04-17T04:46:38.349Z,8.07
2018-04-17T04:49:05.881Z,8.20
2018-04-17T04:51:33.483Z,6.30
2018-04-17T04:54:01.029Z,6.10
2018-04-17T04:56:28.534Z,6.30
2018-04-17T04:58:56.053Z,6.83
2018-04-17T05:01:23.558Z,6.70
2018-04-17T05:03:51.235Z,6.93
2018-04-17T05:06:18.746Z,7.43
2018-04-17T05:08:46.289Z,6.63
2018-04-17T05:11:13.948Z,6.57
2018-04-17T05:13:41.457Z,6.83
2018-04-17T05:16:09.163Z,6.80
2018-04-17T05:18:36.687Z,6.43
2018-04-17T05:21:04.436Z,6.60
2018-04-17T05:23:32.155Z,7.80
2018-04-17T05:25:59.681Z,6.40
2018-04-17T05:28:27.325Z,6.83
2018-04-17T05:30:55.031Z,6.37
2018-04-17T05:33:22.550Z,7.70
2018-04-17T05:35:50.133Z,7.53
2018-04-17T05:38:17.706Z,8.00
2018-04-17T05:40:45.311Z,9.33
2018-04-17T05:43:13.124Z,8.23
2018-04-17T05:45:40.884Z,8.30
2018-04-17T05:48:08.518Z,8.33
2018-04-17T05:50:36.104Z,9.10
2018-04-17T05:53:03.731Z,9.53
2018-04-17T05:55:31.198Z,10.50
2018-04-17T05:57:58.662Z,10.37
2018-04-17T06:00:26.198Z,9.60
2018-04-17T06:02:53.842Z,9.73
2018-04-17T06:05:21.317Z,9.17
2018-04-17T06:07:49.438Z,8.97
2018-04-17T06:10:16.905Z,9.27
2018-04-17T06:12:44.386Z,9.40
2018-04-17T06:15:11.837Z,9.63
2018-04-17T06:17:39.494Z,8.37
2018-04-17T06:20:06.950Z,9.30
2018-04-17T06:22:34.536Z,8.33
2018-04-17T06:25:02.939Z,8.63
2018-04-17T06:27:30.585Z,8.93
2018-04-17T06:29:58.123Z,9.27
2018-04-17T06:32:25.590Z,9.27
2018-04-17T06:34:53.040Z,9.80
2018-04-17T06:37:20.517Z,8.80
2018-04-17T06:39:48.004Z,10.37
2018-04-17T06:42:15.465Z,10.10
2018-04-17T06:44:42.936Z,10.30
2018-04-17T06:47:10.404Z,11.47
2018-04-17T06:49:37.866Z,11.47
2018-04-17T06:52:05.338Z,10.93
2018-04-17T06:54:32.843Z,11.73
2018-04-17T06:57:00.322Z,12.50
2018-04-17T06:59:27.786Z,12.33
2018-04-17T07:01:55.243Z,13.07
2018-04-17T07:04:22.719Z,12.83
2018-04-17T07:06:50.185Z,12.07
2018-04-17T07:09:17.654Z,12.60
2018-04-17T07:11:45.123Z,12.97
2018-04-17T07:14:13.375Z,13.10
2018-04-17T07:16:40.832Z,13.27
2018-04-17T07:19:08.486Z,13.30
2018-04-17T07:21:35.951Z,13.70
2018-04-17T07:24:03.421Z,13.57
2018-04-17T07:26:30.885Z,13.43
2018-04-17T07:28:58.446Z,14.10
2018-04-17T07:31:26.025Z,13.90
2018-04-17T07:33:53.502Z,13.33
2018-04-17T07:36:20.966Z,14.17
2018-04-17T07:38:48.465Z,13.50
2018-04-17T07:41:16.705Z,13.47
2018-04-17T07:43:44.173Z,12.00
2018-04-17T07:46:11.650Z,12.97
2018-04-17T07:48:49.805Z,13.50
2018-04-17T07:51:17.489Z,13.77
2018-04-17T07:53:44.942Z,13.90
2018-04-17T07:56:12.418Z,13.40
2018-04-17T07:58:39.877Z,14.30
2018-04-17T08:01:07.354Z,14.20
2018-04-17T08:03:35.582Z,13.93
2018-04-17T08:06:03.055Z,13.83
2018-04-17T08:08:32.029Z,14.33
2018-04-17T08:10:59.501Z,14.60
2018-04-17T08:13:26.974Z,14.47
2018-04-17T08:15:54.438Z,15.50
2018-04-17T08:18:21.906Z,13.97
2018-04-17T08:20:49.382Z,13.80
2018-04-17T08:23:16.857Z,14.13
2018-04-17T08:25:44.413Z,14.50
2018-04-17T08:28:11.874Z,13.53
2018-04-17T08:30:39.329Z,14.07
2018-04-17T08:33:06.884Z,14.43
2018-04-17T08:35:34.331Z,14.33
2018-04-17T08:38:01.821Z,14.40
2018-04-17T08:40:29.488Z,14.27
2018-04-17T08:42:56.954Z,15.27
2018-04-17T08:45:24.414Z,14.87
2018-04-17T08:47:52.706Z,14.97
2018-04-17T08:50:20.182Z,14.40
2018-04-17T08:52:48.420Z,14.03
2018-04-17T08:55:15.877Z,15.70
2018-04-17T08:57:43.346Z,14.77
2018-04-17T09:00:10.814Z,15.50
2018-04-17T09:02:38.274Z,14.83
2018-04-17T09:05:05.759Z,13.50
2018-04-17T09:07:33.206Z,14.47
2018-04-17T09:10:00.697Z,12.43
2018-04-17T09:12:28.158Z,11.93
2018-04-17T09:14:55.618Z,12.23
2018-04-17T09:17:23.085Z,13.17
2018-04-17T09:19:50.558Z,13.10
2018-04-17T09:22:18.013Z,13.13
2018-04-17T09:24:45.489Z,13.20
2018-04-17T09:27:13.718Z,12.00
2018-04-17T09:29:41.207Z,12.60
2018-04-17T09:32:08.657Z,11.33
2018-04-17T09:34:36.140Z,13.33
2018-04-17T09:37:03.608Z,12.60
2018-04-17T09:39:31.081Z,12.00
2018-04-17T09:41:58.802Z,11.80
2018-04-17T09:44:26.254Z,12.77
2018-04-17T09:46:53.738Z,12.93
2018-04-17T09:49:21.194Z,11.63
2018-04-17T09:51:48.662Z,12.10
2018-04-17T09:54:16.119Z,11.43
2018-04-17T09:56:43.590Z,11.10
2018-04-17T09:59:11.057Z,9.87
2018-04-17T10:01:38.522Z,9.83
2018-04-17T10:04:05.981Z,9.97
2018-04-17T10:06:33.473Z,9.33
2018-04-17T10:09:01.026Z,9.33
2018-04-17T10:11:29.178Z,10.30
2018-04-17T10:13:56.645Z,10.00
2018-04-17T10:16:24.118Z,9.60
2018-04-17T10:18:51.578Z,10.00
2018-04-17T10:21:19.045Z,9.37
2018-04-17T10:23:46.509Z,8.40
2018-04-17T10:26:13.971Z,9.63
2018-04-17T10:28:41.450Z,8.90
2018-04-17T10:31:08.902Z,9.50
2018-04-17T10:33:36.366Z,8.60
2018-04-17T10:36:03.819Z,10.77
2018-04-17T10:38:31.282Z,8.33
2018-04-17T10:40:58.737Z,8.33
2018-04-17T10:43:26.210Z,7.50
2018-04-17T10:45:53.672Z,6.67
2018-04-17T10:48:21.125Z,6.20
2018-04-17T10:50:48.574Z,5.70
2018-04-17T10:53:16.042Z,5.73
2018-04-17T10:55:43.499Z,7.07
2018-04-17T10:58:10.972Z,7.70
2018-04-17T11:00:38.448Z,8.27
2018-04-17T11:03:06.670Z,6.73
2018-04-17T11:05:34.133Z,8.63
2018-04-17T11:08:01.590Z,6.73
2018-04-17T11:10:29.081Z,6.83
2018-04-17T11:12:56.538Z,5.90
2018-04-17T11:15:23.998Z,5.37
2018-04-17T11:17:51.493Z,6.40
2018-04-17T11:20:18.958Z,4.10
2018-04-17T11:22:46.424Z,6.17
2018-04-17T11:25:13.921Z,5.10
2018-04-17T11:27:41.429Z,5.40
2018-04-17T11:30:08.894Z,4.50
2018-04-17T11:32:36.354Z,3.97
2018-04-17T11:35:03.826Z,3.60
2018-04-17T11:37:31.282Z,3.67
2018-04-17T11:39:58.742Z,2.97
2018-04-17T11:42:26.206Z,2.40
2018-04-17T11:44:53.670Z,2.10
2018-04-17T11:47:21.130Z,2.50
2018-04-17T11:49:48.589Z,2.60
2018-04-17T11:52:16.055Z,2.70
2018-04-17T11:54:43.526Z,2.70
2018-04-17T11:57:11.010Z,3.03
2018-04-17T11:59:38.486Z,2.40
2018-04-17T12:02:05.955Z,2.43
2018-04-17T12:04:33.405Z,2.60
2018-04-17T12:07:00.867Z,2.63
2018-04-17T12:09:28.322Z,2.70
2018-04-17T12:11:55.778Z,2.60
2018-04-17T12:14:23.250Z,1.87
2018-04-17T12:16:50.701Z,2.07
2018-04-17T12:19:18.157Z,2.10
2018-04-17T12:21:45.610Z,2.20
2018-04-17T12:24:13.078Z,2.40
2018-04-17T12:26:40.526Z,2.30
2018-04-17T12:29:08.042Z,2.20
2018-04-17T12:31:35.494Z,2.10
2018-04-17T12:34:02.966Z,2.17
2018-04-17T12:36:30.431Z,2.83
2018-04-17T12:38:57.888Z,2.87
2018-04-17T12:41:25.362Z,5.83
2018-04-17T12:43:52.820Z,4.90
2018-04-17T12:46:20.282Z,6.17
2018-04-17T12:48:47.744Z,4.03
2018-04-17T12:51:15.215Z,3.03
2018-04-17T12:53:42.676Z,3.40
2018-04-17T12:56:10.902Z,3.07
2018-04-17T12:58:38.366Z,3.83
2018-04-17T13:01:05.833Z,2.67
2018-04-17T13:03:34.214Z,2.47
2018-04-17T13:06:03.185Z,3.00
2018-04-17T13:08:30.642Z,2.57
2018-04-17T13:10:58.101Z,2.37
2018-04-17T13:13:25.582Z,2.40
2018-04-17T13:15:53.035Z,2.50
2018-04-17T13:18:20.513Z,5.63
2018-04-17T13:20:47.967Z,3.53
2018-04-17T13:23:15.426Z,3.80
2018-04-17T13:25:43.027Z,4.10
2018-04-17T13:28:10.490Z,2.77
2018-04-17T13:30:37.949Z,4.10
2018-04-17T13:33:05.433Z,2.10
2018-04-17T13:35:32.889Z,2.30
2018-04-17T13:38:00.360Z,2.80
2018-04-17T13:40:27.826Z,2.80
2018-04-17T13:42:55.308Z,3.13
2018-04-17T13:45:22.787Z,2.90
2018-04-17T13:47:50.281Z,2.37
2018-04-17T13:50:17.722Z,2.10
2018-04-17T13:52:45.191Z,2.20
2018-04-17T13:55:12.662Z,2.23
2018-04-17T13:57:40.198Z,2.50
2018-04-17T14:00:07.662Z,3.20
2018-04-17T14:02:35.126Z,2.23
2018-04-17T14:05:02.617Z,4.10
2018-04-17T14:07:30.838Z,2.53
2018-04-17T14:09:58.302Z,2.30
2018-04-17T14:12:25.954Z,2.10
2018-04-17T14:14:53.498Z,1.90
2018-04-17T14:17:21.003Z,1.97
2018-04-17T14:19:48.573Z,2.30
2018-04-17T14:22:16.026Z,2.70
2018-04-17T14:24:43.482Z,2.20
2018-04-17T14:27:10.954Z,2.00
2018-04-17T14:29:39.206Z,2.53
2018-04-17T14:32:06.674Z,2.57
2018-04-17T14:34:34.130Z,2.20
2018-04-17T14:37:01.625Z,2.30
2018-04-17T14:39:29.084Z,2.00
2018-04-17T14:41:56.545Z,2.40
2018-04-17T14:44:24.013Z,2.00
2018-04-17T14:46:51.477Z,3.43
2018-04-17T14:49:18.941Z,2.17
2018-04-17T14:51:46.422Z,2.10
2018-04-17T14:54:13.877Z,4.80
2018-04-17T14:56:41.338Z,3.03
2018-04-17T14:59:08.793Z,2.80
2018-04-17T15:01:36.278Z,3.20
2018-04-17T15:04:03.790Z,2.23
2018-04-17T15:06:31.262Z,2.40
2018-04-17T15:08:58.732Z,2.10
2018-04-17T15:11:26.215Z,4.40
2018-04-17T15:13:53.713Z,2.70
2018-04-17T15:16:21.208Z,2.53
2018-04-17T15:18:48.711Z,2.60
2018-04-17T15:21:16.220Z,2.30
2018-04-17T15:23:43.717Z,2.50
2018-04-17T15:26:11.266Z,2.10
2018-04-17T15:28:38.787Z,3.03
2018-04-17T15:31:06.292Z,2.43
2018-04-17T15:33:33.775Z,2.23
2018-04-17T15:36:01.460Z,2.13
2018-04-17T15:38:28.942Z,2.20
2018-04-17T15:40:56.441Z,2.03
2018-04-17T15:43:23.946Z,2.10
2018-04-17T15:45:51.420Z,2.10
2018-04-17T15:48:19.672Z,2.47
2018-04-17T15:50:47.153Z,2.23
2018-04-17T15:53:14.619Z,2.20
2018-04-17T15:55:42.138Z,1.90
2018-04-17T15:58:09.608Z,2.20
2018-04-17T16:00:37.870Z,2.10
2018-04-17T16:03:05.350Z,2.40
2018-04-17T16:05:32.874Z,2.13
2018-04-17T16:08:00.371Z,2.33
2018-04-17T16:10:28.614Z,2.37
2018-04-17T16:12:56.100Z,2.73
2018-04-17T16:15:23.564Z,2.30
2018-04-17T16:17:51.040Z,2.30
2018-04-17T16:20:18.514Z,2.40
2018-04-17T16:22:45.999Z,2.43
2018-04-17T16:25:13.456Z,2.33
2018-04-17T16:27:41.827Z,2.20
2018-04-17T16:30:09.334Z,2.63
2018-04-17T16:32:37.597Z,2.30
2018-04-17T16:35:05.055Z,2.70
2018-04-17T16:37:32.553Z,2.83
2018-04-17T16:40:00.024Z,2.63
2018-04-17T16:42:27.501Z,2.50
2018-04-17T16:44:55.044Z,2.47
2018-04-17T16:47:22.568Z,2.80
2018-04-17T16:49:50.041Z,2.50
2018-04-17T16:52:17.522Z,2.50
2018-04-17T16:54:44.979Z,2.50
2018-04-17T16:57:12.478Z,2.70
2018-04-17T16:59:39.961Z,2.53
2018-04-17T17:02:07.427Z,2.30
2018-04-17T17:04:34.927Z,2.83
2018-04-17T17:07:02.398Z,2.90
2018-04-17T17:09:30.650Z,3.40
2018-04-17T17:11:58.123Z,3.00
2018-04-17T17:14:25.658Z,2.40
2018-04-17T17:16:53.423Z,2.53
2018-04-17T17:19:20.908Z,2.53
2018-04-17T17:21:49.152Z,2.43
2018-04-17T17:24:16.633Z,2.67
2018-04-17T17:26:44.124Z,3.00
2018-04-17T17:29:11.611Z,3.50
2018-04-17T17:31:39.078Z,3.10
2018-04-17T17:34:06.600Z,3.03
2018-04-17T17:36:34.069Z,2.60
2018-04-17T17:39:01.596Z,2.70
2018-04-17T17:41:29.079Z,3.83
2018-04-17T17:43:56.590Z,2.77
2018-04-17T17:46:24.069Z,2.63
2018-04-17T17:48:51.554Z,3.13
2018-04-17T17:51:19.033Z,3.87
2018-04-17T17:53:46.506Z,2.90
2018-04-17T17:56:13.976Z,2.60
2018-04-17T17:58:41.442Z,2.80
2018-04-17T18:01:08.915Z,2.83
2018-04-17T18:03:37.154Z,2.40
2018-04-17T18:06:04.629Z,2.90
2018-04-17T18:08:32.090Z,3.50
2018-04-17T18:11:00.725Z,3.67
2018-04-17T18:13:28.204Z,3.17
2018-04-17T18:15:55.684Z,3.20
2018-04-17T18:18:23.218Z,2.77
2018-04-17T18:20:50.696Z,2.70
2018-04-17T18:23:18.166Z,2.70
2018-04-17T18:25:46.418Z,2.93
2018-04-17T18:28:13.917Z,2.73
2018-04-17T18:30:41.410Z,3.03
2018-04-17T18:33:08.914Z,3.03
2018-04-17T18:35:36.385Z,3.47
2018-04-17T18:38:05.435Z,3.70
2018-04-17T18:40:32.904Z,3.30
2018-04-17T18:43:00.376Z,3.00
2018-04-17T18:45:27.897Z,3.13
2018-04-17T18:47:55.370Z,3.20
2018-04-17T18:50:22.846Z,3.23
2018-04-17T18:52:50.332Z,3.07
2018-04-17T18:55:17.840Z,3.20
2018-04-17T18:57:45.340Z,4.23
2018-04-17T19:00:13.630Z,4.50
2018-04-17T19:02:41.118Z,4.80
2018-04-17T19:05:08.605Z,5.13
2018-04-17T19:07:36.095Z,5.70
2018-04-17T19:10:04.338Z,4.00
2018-04-17T19:12:31.827Z,4.13
2018-04-17T19:14:59.308Z,4.60
2018-04-17T19:17:26.782Z,4.30
2018-04-17T19:19:54.251Z,4.47
2018-04-17T19:22:21.732Z,3.57
2018-04-17T19:24:49.203Z,3.70
2018-04-17T19:27:16.698Z,3.87
2018-04-17T19:29:44.183Z,3.93
2018-04-17T19:32:11.694Z,4.13
2018-04-17T19:34:40.079Z,4.57
2018-04-17T19:37:07.558Z,4.40
2018-04-17T19:39:35.027Z,4.37
2018-04-17T19:42:02.557Z,4.23
2018-04-17T19:44:30.031Z,4.57
2018-04-17T19:46:57.512Z,4.20
2018-04-17T19:49:25.024Z,4.50
2018-04-17T19:51:52.543Z,3.90
2018-04-17T19:54:20.019Z,4.30
2018-04-17T19:56:48.260Z,3.97
2018-04-17T19:59:15.727Z,3.87
2018-04-17T20:01:43.185Z,3.70
2018-04-17T20:04:10.703Z,3.73
2018-04-17T20:06:38.522Z,4.50
2018-04-17T20:09:06.022Z,4.03
2018-04-17T20:11:33.643Z,4.17
2018-04-17T20:14:01.993Z,4.17
2018-04-17T20:16:29.467Z,4.87
2018-04-17T20:18:56.946Z,4.53
2018-04-17T20:21:24.431Z,4.50
2018-04-17T20:23:51.954Z,4.37
2018-04-17T20:26:20.245Z,4.67
2018-04-17T20:28:48.478Z,4.43
2018-04-17T20:31:15.950Z,4.30
2018-04-17T20:33:43.431Z,4.17
2018-04-17T20:36:11.686Z,4.87
2018-04-17T20:38:39.177Z,5.30
2018-04-17T20:41:06.652Z,5.40
2018-04-17T20:43:34.231Z,5.17
2018-04-17T20:46:01.722Z,4.80
2018-04-17T20:48:29.263Z,4.77
2018-04-17T20:50:56.766Z,5.13
2018-04-17T20:53:24.311Z,4.90
2018-04-17T20:55:52.575Z,5.30
2018-04-17T20:58:20.043Z,5.27
2018-04-17T21:00:47.534Z,4.77
2018-04-17T21:03:15.003Z,4.77
2018-04-17T21:05:42.509Z,5.30
2018-04-17T21:08:10.035Z,6.00
2018-04-17T21:10:37.522Z,4.60
2018-04-17T21:13:05.781Z,5.33
2018-04-17T21:15:33.295Z,5.13
2018-04-17T21:18:00.778Z,4.93
2018-04-17T21:20:28.253Z,5.47
2018-04-17T21:22:55.785Z,5.00
2018-04-17T21:25:23.262Z,5.40
2018-04-17T21:27:50.798Z,5.50
2018-04-17T21:30:18.326Z,5.90
2018-04-17T21:32:46.669Z,5.80
2018-04-17T21:35:14.146Z,5.30
2018-04-17T21:37:42.376Z,5.23
2018-04-17T21:40:09.856Z,5.90
2018-04-17T21:42:37.428Z,6.10
2018-04-17T21:45:04.956Z,6.37
2018-04-17T21:47:32.477Z,5.90
2018-04-17T21:49:59.949Z,5.67
2018-04-17T21:52:27.437Z,5.90
2018-04-17T21:54:54.935Z,5.57
2018-04-17T21:57:22.481Z,5.27
2018-04-17T21:59:49.911Z,5.43
2018-04-17T22:02:17.403Z,5.73
2018-04-17T22:04:44.899Z,5.17
2018-04-17T22:07:12.369Z,5.57
2018-04-17T22:09:39.839Z,6.50
2018-04-17T22:12:07.294Z,5.70
2018-04-17T22:14:34.763Z,6.10
2018-04-17T22:17:02.230Z,5.80
2018-04-17T22:19:29.690Z,6.10
2018-04-17T22:21:57.916Z,6.00
2018-04-17T22:24:25.382Z,5.77
2018-04-17T22:26:52.851Z,5.57
2018-04-17T22:29:20.315Z,5.80
2018-04-17T22:31:47.774Z,5.93
2018-04-17T22:34:15.245Z,5.63
2018-04-17T22:36:42.710Z,6.00
2018-04-17T22:39:10.198Z,6.33
2018-04-17T22:41:37.660Z,6.43
2018-04-17T22:44:05.112Z,6.20
2018-04-17T22:46:32.579Z,6.23
2018-04-17T22:49:00.036Z,6.00
2018-04-17T22:51:27.502Z,5.87
2018-04-17T22:53:54.953Z,6.23
2018-04-17T22:56:22.418Z,6.43
2018-04-17T22:58:49.879Z,5.57
2018-04-17T23:01:17.343Z,5.70
2018-04-17T23:03:44.795Z,6.07
2018-04-17T23:06:12.257Z,5.83
2018-04-17T23:08:39.723Z,6.07
2018-04-17T23:11:07.206Z,6.40
2018-04-17T23:13:34.703Z,6.77
2018-04-17T23:16:02.177Z,5.93
2018-04-17T23:18:29.638Z,6.20
2018-04-17T23:20:57.102Z,6.00
2018-04-17T23:23:24.563Z,5.87
2018-04-17T23:25:52.017Z,6.23
2018-04-17T23:28:19.478Z,5.97
2018-04-17T23:30:46.942Z,6.00
2018-04-17T23:33:14.403Z,6.43
2018-04-17T23:35:41.854Z,5.40
2018-04-17T23:38:09.338Z,6.20
2018-04-17T23:40:36.814Z,6.17
2018-04-17T23:43:04.283Z,6.57
2018-04-17T23:45:31.741Z,5.70
2018-04-17T23:47:59.206Z,6.37
2018-04-17T23:50:26.668Z,5.90
2018-04-17T23:52:54.133Z,6.27
2018-04-17T23:55:21.597Z,6.10
2018-04-17T23:57:49.056Z,6.60
